createdAt,value
2019-06-26T00:01:16.253Z,60.30
2019-06-26T00:03:44.696Z,60.40
2019-06-26T00:06:13.143Z,60.80
2019-06-26T00:08:41.582Z,61.20
2019-06-26T00:11:10.032Z,61.40
2019-06-26T00:13:38.479Z,61.50
2019-06-26T00:16:06.982Z,61.60
2019-06-26T00:18:35.456Z,61.80
2019-06-26T00:21:04.012Z,62.00
2019-06-26T00:23:32.445Z,62.10
2019-06-26T00:26:00.892Z,62.50
2019-06-26T00:28:29.351Z,62.90
2019-06-26T00:30:57.780Z,62.90
2019-06-26T00:33:26.238Z,63.00
2019-06-26T00:35:54.681Z,62.80
2019-06-26T00:38:23.138Z,63.10
2019-06-26T00:40:51.565Z,63.20
2019-06-26T00:43:20.029Z,63.60
2019-06-26T00:45:48.466Z,63.80
2019-06-26T00:48:16.902Z,64.30
2019-06-26T00:50:45.339Z,64.80
2019-06-26T00:53:13.804Z,65.20
2019-06-26T00:55:42.294Z,65.50
2019-06-26T00:58:10.753Z,65.60
2019-06-26T01:00:45.245Z,65.80
2019-06-26T01:03:13.707Z,66.10
2019-06-26T01:05:42.151Z,66.50
2019-06-26T01:08:10.602Z,66.80
2019-06-26T01:10:39.043Z,67.30
2019-06-26T01:13:07.494Z,67.90
2019-06-26T01:15:35.930Z,68.40
2019-06-26T01:18:04.387Z,68.80
2019-06-26T01:20:32.820Z,69.50
2019-06-26T01:23:01.284Z,70.20
2019-06-26T01:25:29.794Z,71.00
2019-06-26T01:27:58.258Z,72.50
2019-06-26T01:30:26.858Z,74.00
2019-06-26T01:32:55.357Z,75.70
2019-06-26T01:35:23.784Z,78.10
2019-06-26T01:37:52.265Z,79.60
2019-06-26T01:40:22.465Z,82.80
2019-06-26T01:42:50.925Z,85.40
2019-06-26T01:45:19.601Z,88.70
2019-06-26T01:47:48.062Z,90.50
2019-06-26T01:50:16.579Z,91.90
2019-06-26T01:52:45.023Z,92.80
2019-06-26T01:55:13.593Z,93.70
2019-06-26T01:57:42.043Z,95.00
2019-06-26T02:00:11.920Z,96.00
2019-06-26T02:02:40.361Z,96.70
2019-06-26T02:05:09.338Z,97.50
2019-06-26T02:07:37.786Z,98.40
2019-06-26T02:10:07.279Z,98.80
2019-06-26T02:12:35.810Z,99.20
2019-06-26T02:15:08.153Z,99.50
2019-06-26T02:17:36.787Z,99.90
2019-06-26T02:20:08.355Z,99.90
2019-06-26T02:22:36.780Z,99.90
2019-06-26T02:25:06.568Z,99.90
2019-06-26T02:27:35.076Z,99.90
2019-06-26T02:30:04.864Z,99.90
2019-06-26T02:32:33.297Z,99.90
2019-06-26T02:35:01.808Z,99.90
2019-06-26T02:37:30.274Z,99.90
2019-06-26T02:39:58.734Z,99.90
2019-06-26T02:42:27.252Z,99.90
2019-06-26T02:44:55.772Z,99.90
2019-06-26T02:47:24.215Z,99.90
2019-06-26T02:49:52.694Z,99.90
2019-06-26T02:52:21.178Z,99.90
2019-06-26T02:54:49.644Z,99.90
2019-06-26T02:57:18.063Z,99.90
2019-06-26T02:59:46.510Z,99.90
2019-06-26T03:02:14.958Z,99.90
2019-06-26T03:04:43.458Z,99.90
2019-06-26T03:07:11.938Z,99.90
2019-06-26T03:09:40.394Z,99.90
2019-06-26T03:12:08.843Z,99.90
2019-06-26T03:14:37.308Z,99.90
2019-06-26T03:17:05.759Z,99.90
2019-06-26T03:19:34.231Z,99.90
2019-06-26T03:22:02.683Z,99.90
2019-06-26T03:24:31.106Z,99.90
2019-06-26T03:26:59.572Z,99.90
2019-06-26T03:29:28.009Z,99.90
2019-06-26T03:31:56.468Z,99.90
2019-06-26T03:34:24.896Z,99.90
2019-06-26T03:36:53.383Z,99.90
2019-06-26T03:39:21.870Z,99.90
2019-06-26T03:41:50.357Z,99.90
2019-06-26T03:44:18.853Z,99.90
2019-06-26T03:46:47.333Z,99.90
2019-06-26T03:49:15.759Z,99.90
2019-06-26T03:51:44.222Z,99.90
2019-06-26T03:54:12.654Z,99.90
2019-06-26T03:56:41.128Z,99.90
2019-06-26T03:59:09.566Z,99.90
2019-06-26T04:01:38.099Z,99.90
2019-06-26T04:04:06.532Z,99.90
2019-06-26T04:06:34.985Z,99.90
2019-06-26T04:09:03.532Z,99.90
2019-06-26T04:11:32.042Z,99.90
2019-06-26T04:14:00.475Z,99.90
2019-06-26T04:16:28.959Z,99.90
2019-06-26T04:18:57.446Z,99.90
2019-06-26T04:21:25.908Z,99.90
2019-06-26T04:23:54.405Z,99.90
2019-06-26T04:26:22.873Z,99.90
2019-06-26T04:28:51.309Z,99.90
2019-06-26T04:31:19.762Z,99.90
2019-06-26T04:33:48.211Z,99.90
2019-06-26T04:36:16.659Z,99.90
2019-06-26T04:38:45.109Z,99.90
2019-06-26T04:41:13.543Z,99.90
2019-06-26T04:43:41.990Z,99.90
2019-06-26T04:46:10.428Z,99.90
2019-06-26T04:48:38.881Z,99.90
2019-06-26T04:51:07.376Z,99.90
2019-06-26T04:53:35.857Z,99.90
2019-06-26T04:56:04.868Z,99.90
2019-06-26T04:58:33.333Z,99.90
2019-06-26T05:01:01.769Z,99.90
2019-06-26T05:03:30.228Z,99.90
2019-06-26T05:05:58.665Z,99.90
2019-06-26T05:08:27.121Z,99.90
2019-06-26T05:10:55.570Z,99.90
2019-06-26T05:13:24.038Z,99.90
2019-06-26T05:15:52.478Z,99.90
2019-06-26T05:18:20.927Z,99.90
2019-06-26T05:20:49.357Z,99.90
2019-06-26T05:23:17.821Z,99.90
2019-06-26T05:25:46.286Z,99.90
2019-06-26T05:28:14.740Z,99.90
2019-06-26T05:30:43.182Z,99.90
2019-06-26T05:33:11.628Z,99.90
2019-06-26T05:35:40.094Z,99.90
2019-06-26T05:38:08.731Z,99.90
2019-06-26T05:40:37.352Z,99.90
2019-06-26T05:43:05.913Z,99.90
2019-06-26T05:45:34.505Z,99.90
2019-06-26T05:48:03.075Z,99.90
2019-06-26T05:50:31.584Z,99.90
2019-06-26T05:53:00.018Z,99.90
2019-06-26T05:55:28.485Z,99.90
2019-06-26T05:57:56.915Z,99.90
2019-06-26T06:00:25.464Z,99.90
2019-06-26T06:02:54.207Z,99.90
2019-06-26T06:05:22.822Z,99.90
2019-06-26T06:07:51.261Z,99.90
2019-06-26T06:10:19.928Z,99.90
2019-06-26T06:12:48.365Z,99.90
2019-06-26T06:15:16.893Z,99.90
2019-06-26T06:17:45.330Z,99.90
2019-06-26T06:20:16.907Z,99.90
2019-06-26T06:22:45.416Z,99.70
2019-06-26T06:25:14.070Z,99.60
2019-06-26T06:27:42.582Z,99.60
2019-06-26T06:30:11.100Z,99.30
2019-06-26T06:32:39.541Z,99.00
2019-06-26T06:35:08.328Z,98.90
2019-06-26T06:37:36.770Z,98.90
2019-06-26T06:40:08.594Z,98.60
2019-06-26T06:42:37.081Z,98.50
2019-06-26T06:45:07.272Z,98.40
2019-06-26T06:47:35.710Z,98.10
2019-06-26T06:50:06.450Z,97.00
2019-06-26T06:52:35.023Z,96.80
2019-06-26T06:55:04.921Z,96.50
2019-06-26T06:57:33.441Z,96.10
2019-06-26T07:00:01.883Z,95.90
2019-06-26T07:02:30.416Z,95.70
2019-06-26T07:04:58.849Z,95.20
2019-06-26T07:07:27.306Z,94.90
2019-06-26T07:09:55.751Z,94.50
2019-06-26T07:12:24.571Z,94.10
2019-06-26T07:14:53.008Z,93.80
2019-06-26T07:17:21.641Z,93.30
2019-06-26T07:19:50.197Z,92.80
2019-06-26T07:22:18.648Z,92.40
2019-06-26T07:24:47.084Z,91.90
2019-06-26T07:27:15.541Z,91.30
2019-06-26T07:29:44.008Z,90.80
2019-06-26T07:32:12.472Z,90.30
2019-06-26T07:34:41.001Z,90.00
2019-06-26T07:37:09.477Z,88.00
2019-06-26T07:39:37.965Z,86.60
2019-06-26T07:42:06.425Z,86.10
2019-06-26T07:44:34.855Z,84.60
2019-06-26T07:47:03.306Z,82.50
2019-06-26T07:49:31.797Z,80.20
2019-06-26T07:52:00.314Z,76.00
2019-06-26T07:54:28.829Z,71.40
2019-06-26T07:56:57.378Z,68.60
2019-06-26T07:59:25.877Z,65.80
2019-06-26T08:01:54.351Z,63.60
2019-06-26T08:04:23.075Z,61.20
2019-06-26T08:06:51.501Z,59.10
2019-06-26T08:09:19.984Z,58.50
2019-06-26T08:11:48.471Z,57.70
2019-06-26T08:14:16.922Z,57.70
2019-06-26T08:16:45.354Z,57.10
2019-06-26T08:19:13.903Z,56.50
2019-06-26T08:21:42.391Z,56.60
2019-06-26T08:24:10.889Z,57.00
2019-06-26T08:26:39.327Z,57.50
2019-06-26T08:29:07.870Z,58.10
2019-06-26T08:31:36.297Z,58.40
2019-06-26T08:34:04.770Z,59.00
2019-06-26T08:36:33.205Z,59.60
2019-06-26T08:39:01.654Z,60.00
2019-06-26T08:41:30.096Z,60.40
2019-06-26T08:43:58.548Z,60.30
2019-06-26T08:46:27.062Z,59.90
2019-06-26T08:48:55.511Z,59.90
2019-06-26T08:51:23.958Z,60.10
2019-06-26T08:53:52.487Z,59.60
2019-06-26T08:56:20.942Z,59.70
2019-06-26T08:58:49.414Z,59.00
2019-06-26T09:01:17.849Z,58.90
2019-06-26T09:03:46.298Z,58.40
2019-06-26T09:06:14.734Z,58.10
2019-06-26T09:08:43.173Z,57.90
2019-06-26T09:11:11.607Z,57.80
2019-06-26T09:13:40.064Z,57.80
2019-06-26T09:16:08.562Z,57.40
2019-06-26T09:18:37.029Z,56.90
2019-06-26T09:21:05.454Z,56.90
2019-06-26T09:23:33.908Z,56.70
2019-06-26T09:26:02.340Z,55.60
2019-06-26T09:28:30.786Z,55.10
2019-06-26T09:30:59.492Z,54.80
2019-06-26T09:33:31.330Z,54.70
2019-06-26T09:35:58.086Z,54.40
2019-06-26T09:38:26.529Z,54.40
2019-06-26T09:40:54.983Z,53.40
2019-06-26T09:43:23.437Z,52.30
2019-06-26T09:45:51.885Z,52.10
2019-06-26T09:48:20.348Z,52.20
2019-06-26T09:50:48.832Z,51.80
2019-06-26T09:53:17.284Z,52.10
2019-06-26T09:55:45.713Z,52.10
2019-06-26T09:58:14.148Z,51.80
2019-06-26T10:00:42.612Z,52.40
2019-06-26T10:03:11.051Z,51.90
2019-06-26T10:05:39.514Z,51.60
2019-06-26T10:08:07.937Z,51.40
2019-06-26T10:10:36.390Z,51.10
2019-06-26T10:13:04.824Z,50.90
2019-06-26T10:15:33.292Z,50.90
2019-06-26T10:18:01.715Z,50.60
2019-06-26T10:20:30.199Z,50.80
2019-06-26T10:22:58.633Z,50.60
2019-06-26T10:25:30.163Z,51.00
2019-06-26T10:27:58.597Z,51.00
2019-06-26T10:30:27.046Z,51.00
2019-06-26T10:32:55.482Z,51.20
2019-06-26T10:35:24.702Z,50.90
2019-06-26T10:37:53.134Z,50.60
2019-06-26T10:40:21.861Z,50.40
2019-06-26T10:42:50.299Z,50.50
2019-06-26T10:45:18.896Z,50.30
2019-06-26T10:47:47.419Z,50.30
2019-06-26T10:50:16.357Z,50.50
2019-06-26T10:52:44.783Z,50.00
2019-06-26T10:55:13.642Z,49.40
2019-06-26T10:57:42.086Z,49.40
2019-06-26T11:00:11.366Z,49.10
2019-06-26T11:02:39.778Z,49.40
2019-06-26T11:05:08.559Z,49.20
2019-06-26T11:07:36.993Z,49.20
2019-06-26T11:10:08.555Z,48.00
2019-06-26T11:12:36.989Z,47.90
2019-06-26T11:15:07.975Z,48.30
2019-06-26T11:17:36.524Z,48.40
2019-06-26T11:20:07.961Z,47.00
2019-06-26T11:22:36.620Z,47.30
2019-06-26T11:25:06.874Z,46.30
2019-06-26T11:27:35.384Z,46.50
2019-06-26T11:30:06.916Z,46.70
2019-06-26T11:32:35.372Z,46.20
2019-06-26T11:35:05.994Z,46.40
2019-06-26T11:37:34.429Z,46.10
2019-06-26T11:40:02.962Z,45.20
2019-06-26T11:42:32.825Z,45.30
2019-06-26T11:45:01.556Z,45.40
2019-06-26T11:47:30.171Z,45.40
2019-06-26T11:50:00.150Z,45.60
2019-06-26T11:52:28.909Z,46.10
2019-06-26T11:55:02.531Z,46.30
2019-06-26T11:57:27.756Z,46.40
2019-06-26T11:59:56.429Z,46.40
2019-06-26T12:02:24.905Z,46.00
2019-06-26T12:04:53.402Z,45.50
2019-06-26T12:07:21.848Z,45.30
2019-06-26T12:09:50.360Z,44.40
2019-06-26T12:12:19.066Z,44.30
2019-06-26T12:14:47.546Z,44.50
2019-06-26T12:17:15.999Z,44.70
2019-06-26T12:19:44.681Z,44.80
2019-06-26T12:22:13.254Z,44.80
2019-06-26T12:24:41.680Z,44.50
2019-06-26T12:27:10.197Z,44.10
2019-06-26T12:29:38.636Z,43.50
2019-06-26T12:32:07.097Z,43.70
2019-06-26T12:34:35.508Z,43.90
2019-06-26T12:37:04.022Z,44.10
2019-06-26T12:39:32.519Z,44.20
2019-06-26T12:42:00.989Z,44.30
2019-06-26T12:44:29.423Z,43.90
2019-06-26T12:46:57.935Z,44.10
2019-06-26T12:49:26.435Z,44.30
2019-06-26T12:51:54.883Z,44.30
2019-06-26T12:54:23.356Z,44.50
2019-06-26T12:56:51.844Z,44.70
2019-06-26T12:59:20.303Z,44.70
2019-06-26T13:01:48.840Z,44.90
2019-06-26T13:04:17.309Z,45.00
2019-06-26T13:06:46.405Z,45.00
2019-06-26T13:09:14.836Z,45.60
2019-06-26T13:11:43.276Z,45.70
2019-06-26T13:14:11.706Z,45.60
2019-06-26T13:16:40.174Z,44.90
2019-06-26T13:19:08.610Z,44.30
2019-06-26T13:21:37.056Z,44.40
2019-06-26T13:24:05.509Z,44.40
2019-06-26T13:26:33.962Z,44.90
2019-06-26T13:29:02.385Z,45.10
2019-06-26T13:31:30.847Z,45.00
2019-06-26T13:33:59.754Z,44.70
2019-06-26T13:36:28.206Z,45.20
2019-06-26T13:38:56.716Z,46.00
2019-06-26T13:41:25.157Z,46.00
2019-06-26T13:43:53.593Z,46.20
2019-06-26T13:46:22.038Z,46.10
2019-06-26T13:48:50.493Z,46.60
2019-06-26T13:51:21.502Z,46.10
2019-06-26T13:53:49.103Z,46.10
2019-06-26T13:56:17.523Z,46.00
2019-06-26T13:58:45.978Z,46.00
2019-06-26T14:01:14.410Z,46.20
2019-06-26T14:03:42.854Z,46.60
2019-06-26T14:06:11.289Z,47.00
2019-06-26T14:08:39.817Z,46.90
2019-06-26T14:11:08.249Z,47.30
2019-06-26T14:13:36.714Z,47.60
2019-06-26T14:16:05.142Z,47.40
2019-06-26T14:18:33.677Z,47.30
2019-06-26T14:21:02.111Z,47.60
2019-06-26T14:23:30.563Z,48.10
2019-06-26T14:25:59.002Z,48.50
2019-06-26T14:28:27.454Z,48.50
2019-06-26T14:30:55.898Z,47.50
2019-06-26T14:33:24.383Z,48.00
2019-06-26T14:35:52.813Z,48.20
2019-06-26T14:38:21.274Z,48.40
2019-06-26T14:40:49.727Z,48.30
2019-06-26T14:43:18.170Z,48.10
2019-06-26T14:45:46.598Z,47.70
2019-06-26T14:48:15.074Z,47.50
2019-06-26T14:50:43.576Z,47.20
2019-06-26T14:53:12.023Z,47.20
2019-06-26T14:55:40.450Z,47.00
2019-06-26T14:58:08.902Z,47.00
2019-06-26T15:00:37.337Z,47.50
2019-06-26T15:03:05.791Z,47.90
2019-06-26T15:05:34.216Z,48.10
2019-06-26T15:08:02.662Z,47.70
2019-06-26T15:10:31.103Z,47.80
2019-06-26T15:12:59.565Z,47.70
2019-06-26T15:15:27.998Z,47.80
2019-06-26T15:17:56.557Z,48.20
2019-06-26T15:20:25.060Z,48.20
2019-06-26T15:22:53.519Z,48.60
2019-06-26T15:25:22.035Z,48.70
2019-06-26T15:27:50.478Z,48.90
2019-06-26T15:30:20.327Z,48.70
2019-06-26T15:32:48.789Z,48.50
2019-06-26T15:35:17.244Z,48.30
2019-06-26T15:37:45.693Z,48.20
2019-06-26T15:40:15.164Z,48.80
2019-06-26T15:42:43.607Z,48.90
2019-06-26T15:45:12.231Z,49.40
2019-06-26T15:47:40.690Z,48.50
2019-06-26T15:50:11.004Z,48.20
2019-06-26T15:52:39.667Z,48.10
2019-06-26T15:55:08.775Z,47.80
2019-06-26T15:57:37.218Z,47.90
2019-06-26T16:00:07.268Z,47.60
2019-06-26T16:02:35.745Z,47.40
2019-06-26T16:05:05.750Z,47.60
2019-06-26T16:07:34.254Z,47.70
2019-06-26T16:10:03.074Z,47.60
2019-06-26T16:12:31.547Z,47.20
2019-06-26T16:15:00.012Z,47.40
2019-06-26T16:17:32.992Z,47.70
2019-06-26T16:20:01.473Z,47.40
2019-06-26T16:22:32.685Z,47.30
2019-06-26T16:25:00.101Z,47.50
2019-06-26T16:27:28.612Z,47.70
2019-06-26T16:29:57.075Z,47.50
2019-06-26T16:32:25.504Z,47.60
2019-06-26T16:34:53.959Z,47.80
2019-06-26T16:37:22.398Z,48.10
2019-06-26T16:39:50.926Z,48.20
2019-06-26T16:42:19.358Z,48.50
2019-06-26T16:44:47.860Z,48.80
2019-06-26T16:47:16.328Z,48.90
2019-06-26T16:49:44.797Z,49.30
2019-06-26T16:52:13.232Z,49.90
2019-06-26T16:54:41.687Z,50.30
2019-06-26T16:57:10.204Z,50.60
2019-06-26T16:59:38.662Z,51.00
2019-06-26T17:02:07.297Z,51.30
2019-06-26T17:04:35.788Z,51.50
2019-06-26T17:07:04.298Z,51.60
2019-06-26T17:09:32.729Z,51.90
2019-06-26T17:12:01.174Z,52.20
2019-06-26T17:14:29.611Z,52.40
2019-06-26T17:16:58.056Z,52.00
2019-06-26T17:19:26.489Z,52.00
2019-06-26T17:21:54.938Z,52.20
2019-06-26T17:24:23.367Z,52.20
2019-06-26T17:26:51.824Z,52.30
2019-06-26T17:29:20.261Z,52.60
2019-06-26T17:31:48.719Z,52.50
2019-06-26T17:34:17.314Z,52.20
2019-06-26T17:36:45.754Z,51.10
2019-06-26T17:39:14.221Z,50.10
2019-06-26T17:41:44.129Z,49.40
2019-06-26T17:44:12.746Z,49.20
2019-06-26T17:46:41.210Z,48.30
2019-06-26T17:49:09.797Z,48.60
2019-06-26T17:51:38.323Z,48.90
2019-06-26T17:54:06.780Z,48.10
2019-06-26T17:56:36.789Z,47.60
2019-06-26T17:59:05.219Z,47.30
2019-06-26T18:01:33.845Z,47.20
2019-06-26T18:04:05.876Z,47.30
2019-06-26T18:06:32.502Z,47.10
2019-06-26T18:09:00.952Z,46.60
2019-06-26T18:11:29.403Z,46.80
2019-06-26T18:13:57.833Z,46.90
2019-06-26T18:16:26.302Z,46.90
2019-06-26T18:18:54.773Z,46.80
2019-06-26T18:21:23.266Z,46.90
2019-06-26T18:23:51.727Z,47.40
2019-06-26T18:26:20.243Z,47.80
2019-06-26T18:28:48.734Z,48.20
2019-06-26T18:31:17.190Z,48.60
2019-06-26T18:33:45.626Z,49.10
2019-06-26T18:36:14.144Z,49.60
2019-06-26T18:38:42.636Z,50.00
2019-06-26T18:41:11.095Z,50.70
2019-06-26T18:43:39.532Z,51.10
2019-06-26T18:46:07.963Z,51.50
2019-06-26T18:48:36.413Z,52.20
2019-06-26T18:51:04.877Z,52.60
2019-06-26T18:53:33.326Z,52.90
2019-06-26T18:56:01.792Z,53.10
2019-06-26T18:58:30.899Z,53.30
2019-06-26T19:00:59.411Z,53.50
2019-06-26T19:03:27.954Z,54.00
2019-06-26T19:05:56.386Z,54.30
2019-06-26T19:08:24.837Z,54.70
2019-06-26T19:10:53.276Z,55.10
2019-06-26T19:13:21.727Z,55.50
2019-06-26T19:15:50.186Z,56.20
2019-06-26T19:18:18.663Z,56.80
2019-06-26T19:20:47.143Z,57.10
2019-06-26T19:23:15.592Z,57.50
2019-06-26T19:25:44.016Z,57.60
2019-06-26T19:28:12.458Z,58.00
2019-06-26T19:30:40.890Z,58.40
2019-06-26T19:33:09.333Z,58.70
2019-06-26T19:35:39.313Z,59.30
2019-06-26T19:38:07.764Z,59.60
2019-06-26T19:40:36.191Z,60.00
2019-06-26T19:43:04.687Z,60.40
2019-06-26T19:45:33.249Z,60.90
2019-06-26T19:48:01.699Z,61.60
2019-06-26T19:50:30.148Z,62.00
2019-06-26T19:52:58.613Z,62.50
2019-06-26T19:55:27.061Z,62.70
2019-06-26T19:57:55.573Z,63.00
2019-06-26T20:00:24.107Z,63.60
2019-06-26T20:02:52.618Z,63.90
2019-06-26T20:05:21.071Z,64.20
2019-06-26T20:07:49.538Z,64.60
2019-06-26T20:10:18.306Z,65.00
2019-06-26T20:12:46.763Z,65.20
2019-06-26T20:15:15.934Z,65.40
2019-06-26T20:17:44.390Z,65.70
2019-06-26T20:20:14.071Z,65.90
2019-06-26T20:22:42.546Z,66.10
2019-06-26T20:25:11.431Z,66.10
2019-06-26T20:27:39.913Z,66.20
2019-06-26T20:30:10.308Z,66.50
2019-06-26T20:32:38.836Z,66.80
2019-06-26T20:35:07.837Z,66.90
2019-06-26T20:37:36.341Z,67.10
2019-06-26T20:40:09.104Z,67.50
2019-06-26T20:42:37.558Z,67.90
2019-06-26T20:45:06.746Z,68.10
2019-06-26T20:47:35.218Z,68.30
2019-06-26T20:50:05.251Z,68.50
2019-06-26T20:52:33.676Z,68.80
2019-06-26T20:55:02.866Z,68.90
2019-06-26T20:57:31.446Z,69.30
2019-06-26T20:59:59.915Z,69.60
2019-06-26T21:02:28.403Z,69.80
2019-06-26T21:04:56.930Z,70.20
2019-06-26T21:07:25.457Z,70.60
2019-06-26T21:09:53.917Z,71.00
2019-06-26T21:12:22.345Z,71.30
2019-06-26T21:14:50.788Z,71.80
2019-06-26T21:17:19.217Z,71.80
2019-06-26T21:19:47.673Z,72.20
2019-06-26T21:22:16.122Z,72.30
2019-06-26T21:24:44.578Z,72.60
2019-06-26T21:27:13.026Z,72.90
2019-06-26T21:29:41.490Z,72.80
2019-06-26T21:32:09.936Z,72.90
2019-06-26T21:34:38.476Z,72.40
2019-06-26T21:37:06.970Z,72.40
2019-06-26T21:39:35.534Z,72.40
2019-06-26T21:42:04.033Z,72.70
2019-06-26T21:44:32.506Z,73.70
2019-06-26T21:47:00.983Z,73.00
2019-06-26T21:49:29.430Z,72.30
2019-06-26T21:51:57.864Z,71.60
2019-06-26T21:54:26.314Z,71.20
2019-06-26T21:56:54.745Z,71.30
2019-06-26T21:59:23.217Z,70.90
2019-06-26T22:01:51.704Z,70.70
2019-06-26T22:04:20.341Z,70.30
2019-06-26T22:06:48.792Z,69.60
2019-06-26T22:09:17.433Z,68.90
2019-06-26T22:11:45.914Z,68.40
2019-06-26T22:14:14.370Z,68.20
2019-06-26T22:16:42.796Z,67.90
2019-06-26T22:19:11.329Z,67.60
2019-06-26T22:21:39.760Z,67.90
2019-06-26T22:24:08.238Z,69.00
2019-06-26T22:26:36.669Z,68.20
2019-06-26T22:29:05.106Z,68.10
2019-06-26T22:31:33.594Z,68.30
2019-06-26T22:34:02.068Z,68.10
2019-06-26T22:36:30.541Z,68.00
2019-06-26T22:38:59.033Z,68.30
2019-06-26T22:41:27.514Z,68.80
2019-06-26T22:43:56.015Z,69.70
2019-06-26T22:46:24.528Z,70.50
2019-06-26T22:48:52.953Z,70.90
2019-06-26T22:51:21.415Z,71.40
2019-06-26T22:53:49.858Z,71.20
2019-06-26T22:56:18.305Z,71.60
2019-06-26T22:58:46.739Z,71.90
2019-06-26T23:01:15.279Z,72.30
2019-06-26T23:03:43.715Z,72.40
2019-06-26T23:06:12.167Z,72.40
2019-06-26T23:08:40.610Z,72.80
2019-06-26T23:11:09.064Z,74.10
2019-06-26T23:13:37.507Z,74.80
2019-06-26T23:16:05.954Z,75.00
2019-06-26T23:18:34.391Z,74.90
2019-06-26T23:21:02.839Z,75.50
2019-06-26T23:23:31.279Z,76.80
2019-06-26T23:25:59.731Z,77.80
2019-06-26T23:28:28.158Z,79.00
2019-06-26T23:30:56.617Z,80.50
2019-06-26T23:33:25.064Z,81.00
2019-06-26T23:35:53.513Z,82.00
2019-06-26T23:38:22.216Z,83.30
2019-06-26T23:40:50.687Z,84.00
2019-06-26T23:43:19.121Z,83.80
2019-06-26T23:45:47.580Z,82.00
2019-06-26T23:48:16.018Z,82.10
2019-06-26T23:50:44.512Z,82.80
2019-06-26T23:53:13.005Z,84.00
2019-06-26T23:55:41.464Z,86.00
2019-06-26T23:58:09.899Z,87.50
